Archival Weather

Snohomish County (Paine Fld)

Everett, Washington (KPAE)

Report from: Sunday, November 19, 2023 12:53 PM PST
Current time: Monday, June 17, 2024 12:29 AM PDT

Current weather – Weather history – Daily summaries
Weather forecast

Temperature8.9°C (48.0°F)
Wind chill8.3°C (47.0°F)
Dew point5.0°C (41.0°F)
Winds 3 kts (1.5 m/s, 3.5 mph) Vrb
Winds variableWinds variable
Visibility10 mi. (16.1 km)
Clouds Few clouds 2,100 ft. (640 m)
Ceiling: Broken clouds 4,000 ft. (1,219 m)
Overcast 6,000 ft. (1,829 m)
Altimeter30.31 in.Hg (1026 mB)
Relative humidity77 %
Density altitude-1,058 ft. (-323 m)
Sea-level pressure102.7 kPa (1027 mB, 30.32 in.Hg)
Remarks Automated weather observing station with precipitation discriminator
Pressure rising more slowly
Flight conditions Visual Meteorological Conditions
Raw dataKPAE 192053Z VRB03KT 10SM FEW021 BKN040 OVC060 09/05 A3031 RMK AO2 SLP267 T00890050 51033
An error has occurred. This application may no longer respond until reloaded. Reload 🗙